MTN324 KGPI-KSLC
Flight info
| Callsign | MTN324 |
|---|---|
| Flight time | 1h 16m |
| Altitude | 35000 |
| Route | SKOTT2 SKOTT MSO PIH SKEES6 |
| Aircraft | E75L/M-SDE3GILORVW/S |
Departure
| Time | 2026-04-21 21:54 |
|---|---|
| Airport | Glacier Park International Airport (KGPI) |
Arrival
| Time | 2026-04-21 23:10 |
|---|---|
| Airport | Salt Lake City International Airport (KSLC) |
| Time | Latitude | Longitude | Altitude | Speed | Heading |
|---|---|---|---|---|---|
| 2026-04-21 21:36 | 48.30754 | -114.25372 | 2975 ft | 0 kts | 124° |
| 2026-04-21 21:46 | 48.30754 | -114.25373 | 2975 ft | 1 kts | 124° |
| 2026-04-21 21:46 | 48.30768 | -114.25403 | 2975 ft | 4 kts | 128° |
| 2026-04-21 21:47 | 48.30786 | -114.25432 | 2975 ft | 4 kts | 146° |
| 2026-04-21 21:47 | 48.30807 | -114.25436 | 2975 ft | 2 kts | 214° |
| 2026-04-21 21:47 | 48.30812 | -114.25432 | 2975 ft | 0 kts | 214° |
| 2026-04-21 21:49 | 48.30810 | -114.25433 | 2975 ft | 1 kts | 214° |
| 2026-04-21 21:49 | 48.30801 | -114.25446 | 2975 ft | 3 kts | 232° |
| 2026-04-21 21:50 | 48.30797 | -114.25476 | 2975 ft | 3 kts | 285° |
| 2026-04-21 21:50 | 48.30817 | -114.25531 | 2971 ft | 10 kts | 295° |
| 2026-04-21 21:50 | 48.30790 | -114.25609 | 2967 ft | 10 kts | 216° |
| 2026-04-21 21:50 | 48.30721 | -114.25680 | 2959 ft | 14 kts | 214° |
| 2026-04-21 21:51 | 48.30643 | -114.25763 | 2967 ft | 14 kts | 215° |
| 2026-04-21 21:51 | 48.30563 | -114.25845 | 2967 ft | 15 kts | 215° |
| 2026-04-21 21:51 | 48.30477 | -114.25934 | 2968 ft | 15 kts | 214° |
| 2026-04-21 21:51 | 48.30389 | -114.26026 | 2969 ft | 16 kts | 214° |
| 2026-04-21 21:52 | 48.30286 | -114.26132 | 2967 ft | 19 kts | 216° |
| 2026-04-21 21:52 | 48.30175 | -114.26250 | 2966 ft | 21 kts | 215° |
| 2026-04-21 21:52 | 48.30053 | -114.26377 | 2966 ft | 21 kts | 215° |
| 2026-04-21 21:52 | 48.29931 | -114.26505 | 2967 ft | 22 kts | 214° |
| 2026-04-21 21:53 | 48.29852 | -114.26592 | 2970 ft | 11 kts | 230° |
| 2026-04-21 21:53 | 48.29861 | -114.26699 | 2969 ft | 11 kts | 304° |
| 2026-04-21 21:53 | 48.29896 | -114.26741 | 2968 ft | 2 kts | 12° |
| 2026-04-21 21:53 | 48.29918 | -114.26723 | 2968 ft | 15 kts | 34° |
| 2026-04-21 21:54 | 48.30236 | -114.26392 | 2957 ft | 95 kts | 34° |
| 2026-04-21 21:54 | 48.30966 | -114.25635 | 2984 ft | 159 kts | 34° |
| 2026-04-21 21:54 | 48.31965 | -114.24663 | 3660 ft | 174 kts | 31° |
| 2026-04-21 21:54 | 48.33004 | -114.23659 | 4377 ft | 184 kts | 33° |
| 2026-04-21 21:55 | 48.34195 | -114.22813 | 5150 ft | 199 kts | 8° |
| 2026-04-21 21:55 | 48.35601 | -114.23196 | 5848 ft | 217 kts | 329° |
| 2026-04-21 21:55 | 48.36650 | -114.24904 | 6533 ft | 233 kts | 294° |
| 2026-04-21 21:55 | 48.36879 | -114.27341 | 7242 ft | 243 kts | 259° |
| 2026-04-21 21:56 | 48.36170 | -114.29635 | 8028 ft | 247 kts | 227° |
| 2026-04-21 21:56 | 48.34740 | -114.31012 | 8890 ft | 248 kts | 195° |
| 2026-04-21 21:56 | 48.33029 | -114.31011 | 9724 ft | 250 kts | 163° |
| 2026-04-21 21:56 | 48.31504 | -114.29759 | 10515 ft | 253 kts | 144° |
| 2026-04-21 21:57 | 48.30161 | -114.28020 | 11240 ft | 259 kts | 138° |
| 2026-04-21 21:57 | 48.28807 | -114.26134 | 11810 ft | 278 kts | 138° |
| 2026-04-21 21:57 | 48.27290 | -114.24025 | 11947 ft | 315 kts | 139° |
| 2026-04-21 21:57 | 48.25595 | -114.21718 | 12455 ft | 335 kts | 139° |
| 2026-04-21 21:58 | 48.23864 | -114.19360 | 13581 ft | 335 kts | 140° |
| 2026-04-21 21:58 | 48.22094 | -114.17102 | 14733 ft | 332 kts | 142° |
| 2026-04-21 21:58 | 48.20118 | -114.15329 | 15566 ft | 340 kts | 162° |
| 2026-04-21 21:58 | 48.17676 | -114.14861 | 15458 ft | 373 kts | 186° |
| 2026-04-21 21:59 | 48.15198 | -114.15529 | 17082 ft | 349 kts | 192° |
| 2026-04-21 21:59 | 48.12826 | -114.16127 | 18001 ft | 356 kts | 187° |
| 2026-04-21 21:59 | 48.10278 | -114.16419 | 18242 ft | 376 kts | 182° |
| 2026-04-21 21:59 | 48.07655 | -114.16477 | 18997 ft | 379 kts | 181° |
| 2026-04-21 22:00 | 48.05011 | -114.16457 | 19811 ft | 381 kts | 181° |
| 2026-04-21 22:00 | 48.02363 | -114.16368 | 20673 ft | 380 kts | 180° |
| 2026-04-21 22:00 | 47.99717 | -114.16256 | 21525 ft | 378 kts | 181° |
| 2026-04-21 22:00 | 47.97092 | -114.16120 | 22318 ft | 378 kts | 181° |
| 2026-04-21 22:01 | 47.94466 | -114.15958 | 23058 ft | 378 kts | 181° |
| 2026-04-21 22:01 | 47.91837 | -114.15775 | 23695 ft | 379 kts | 181° |
| 2026-04-21 22:01 | 47.89192 | -114.15578 | 24248 ft | 382 kts | 181° |
| 2026-04-21 22:01 | 47.86532 | -114.15372 | 24808 ft | 384 kts | 181° |
| 2026-04-21 22:02 | 47.83853 | -114.15155 | 25374 ft | 386 kts | 181° |
| 2026-04-21 22:02 | 47.81183 | -114.14935 | 26104 ft | 383 kts | 181° |
| 2026-04-21 22:02 | 47.78566 | -114.14713 | 26821 ft | 380 kts | 181° |
| 2026-04-21 22:02 | 47.75934 | -114.14484 | 27541 ft | 378 kts | 181° |
| 2026-04-21 22:03 | 47.73319 | -114.14255 | 28210 ft | 376 kts | 180° |
| 2026-04-21 22:03 | 47.70706 | -114.14020 | 28864 ft | 374 kts | 181° |
| 2026-04-21 22:03 | 47.68107 | -114.13833 | 29490 ft | 373 kts | 181° |
| 2026-04-21 22:03 | 47.65521 | -114.13653 | 30084 ft | 371 kts | 181° |
| 2026-04-21 22:04 | 47.62940 | -114.13472 | 30654 ft | 369 kts | 181° |
| 2026-04-21 22:04 | 47.60381 | -114.13292 | 31212 ft | 367 kts | 181° |
| 2026-04-21 22:04 | 47.58698 | -114.13172 | 31564 ft | 365 kts | 181° |
| 2026-04-21 22:04 | 47.56166 | -114.12996 | 32115 ft | 363 kts | 181° |
| 2026-04-21 22:05 | 47.52838 | -114.12760 | 32789 ft | 360 kts | 181° |
| 2026-04-21 22:05 | 47.51145 | -114.12639 | 33118 ft | 359 kts | 181° |
| 2026-04-21 22:05 | 47.48688 | -114.12466 | 33603 ft | 357 kts | 181° |
| 2026-04-21 22:05 | 47.46206 | -114.12291 | 33979 ft | 357 kts | 181° |
| 2026-04-21 22:06 | 47.43730 | -114.12116 | 34331 ft | 356 kts | 181° |
| 2026-04-21 22:06 | 47.41250 | -114.11942 | 34709 ft | 354 kts | 181° |
| 2026-04-21 22:06 | 47.38773 | -114.11769 | 34783 ft | 360 kts | 181° |
| 2026-04-21 22:07 | 47.33673 | -114.11406 | 34813 ft | 373 kts | 181° |
| 2026-04-21 22:07 | 47.28419 | -114.10978 | 34840 ft | 383 kts | 181° |
| 2026-04-21 22:08 | 47.22997 | -114.10612 | 34708 ft | 396 kts | 180° |
| 2026-04-21 22:08 | 47.17470 | -114.10208 | 34703 ft | 399 kts | 181° |
| 2026-04-21 22:09 | 47.11892 | -114.09853 | 34718 ft | 401 kts | 181° |
| 2026-04-21 22:09 | 47.06356 | -114.09386 | 34705 ft | 401 kts | 180° |
| 2026-04-21 22:10 | 47.00758 | -114.08942 | 34707 ft | 403 kts | 181° |
| 2026-04-21 22:10 | 46.95167 | -114.08521 | 34718 ft | 402 kts | 181° |
| 2026-04-21 22:11 | 46.89582 | -114.07689 | 34746 ft | 408 kts | 172° |
| 2026-04-21 22:11 | 46.84053 | -114.05640 | 34717 ft | 410 kts | 170° |
| 2026-04-21 22:12 | 46.78524 | -114.03557 | 34712 ft | 411 kts | 170° |
| 2026-04-21 22:12 | 46.72988 | -114.01477 | 34710 ft | 410 kts | 170° |
| 2026-04-21 22:13 | 46.67482 | -113.99408 | 34700 ft | 411 kts | 170° |
| 2026-04-21 22:13 | 46.61938 | -113.97327 | 34703 ft | 411 kts | 170° |
| 2026-04-21 22:14 | 46.56385 | -113.95250 | 34700 ft | 412 kts | 170° |
| 2026-04-21 22:14 | 46.50829 | -113.93178 | 34701 ft | 411 kts | 170° |
| 2026-04-21 22:15 | 46.45268 | -113.91109 | 34717 ft | 413 kts | 170° |
| 2026-04-21 22:15 | 46.39710 | -113.89046 | 34716 ft | 412 kts | 170° |
| 2026-04-21 22:16 | 46.34182 | -113.86997 | 34701 ft | 412 kts | 170° |
| 2026-04-21 22:16 | 46.28607 | -113.84937 | 34708 ft | 413 kts | 170° |
| 2026-04-21 22:17 | 46.23019 | -113.82875 | 34721 ft | 415 kts | 170° |
| 2026-04-21 22:17 | 46.17430 | -113.80817 | 34719 ft | 414 kts | 170° |
| 2026-04-21 22:18 | 46.11830 | -113.78762 | 34726 ft | 416 kts | 170° |
| 2026-04-21 22:18 | 46.06224 | -113.76707 | 34720 ft | 416 kts | 171° |
| 2026-04-21 22:19 | 46.00607 | -113.74651 | 34727 ft | 417 kts | 170° |
| 2026-04-21 22:19 | 45.94968 | -113.72593 | 34734 ft | 418 kts | 170° |
| 2026-04-21 22:20 | 45.89361 | -113.70552 | 34729 ft | 419 kts | 170° |
| 2026-04-21 22:20 | 45.83709 | -113.68496 | 34742 ft | 419 kts | 170° |
| 2026-04-21 22:21 | 45.78047 | -113.66443 | 34765 ft | 419 kts | 171° |
| 2026-04-21 22:21 | 45.72372 | -113.64388 | 34742 ft | 420 kts | 171° |
| 2026-04-21 22:22 | 45.66685 | -113.62334 | 34746 ft | 421 kts | 171° |
| 2026-04-21 22:22 | 45.61007 | -113.60287 | 34745 ft | 421 kts | 171° |
| 2026-04-21 22:23 | 45.55301 | -113.58235 | 34747 ft | 422 kts | 171° |
| 2026-04-21 22:23 | 45.49640 | -113.56202 | 34748 ft | 422 kts | 171° |
| 2026-04-21 22:24 | 45.43929 | -113.54158 | 34749 ft | 423 kts | 171° |
| 2026-04-21 22:24 | 45.38211 | -113.52113 | 34755 ft | 423 kts | 171° |
| 2026-04-21 22:25 | 45.32490 | -113.50073 | 34749 ft | 424 kts | 171° |
| 2026-04-21 22:25 | 45.26764 | -113.48035 | 34750 ft | 424 kts | 171° |
| 2026-04-21 22:26 | 45.21032 | -113.45999 | 34743 ft | 425 kts | 171° |
| 2026-04-21 22:26 | 45.15339 | -113.43981 | 34740 ft | 425 kts | 171° |
| 2026-04-21 22:27 | 45.09587 | -113.41946 | 34733 ft | 426 kts | 171° |
| 2026-04-21 22:27 | 45.03824 | -113.39912 | 34726 ft | 426 kts | 171° |
| 2026-04-21 22:28 | 44.98076 | -113.37888 | 34721 ft | 426 kts | 171° |
| 2026-04-21 22:28 | 44.92303 | -113.35858 | 34721 ft | 427 kts | 171° |
| 2026-04-21 22:29 | 44.86531 | -113.33833 | 34720 ft | 427 kts | 171° |
| 2026-04-21 22:29 | 44.80787 | -113.31822 | 34717 ft | 428 kts | 171° |
| 2026-04-21 22:30 | 44.74999 | -113.29801 | 34731 ft | 429 kts | 171° |
| 2026-04-21 22:30 | 44.69217 | -113.27784 | 34749 ft | 429 kts | 171° |
| 2026-04-21 22:31 | 44.63409 | -113.25765 | 34748 ft | 430 kts | 171° |
| 2026-04-21 22:31 | 44.57597 | -113.23747 | 34758 ft | 430 kts | 171° |
| 2026-04-21 22:32 | 44.51770 | -113.21728 | 34760 ft | 431 kts | 171° |
| 2026-04-21 22:32 | 44.45946 | -113.19715 | 34765 ft | 431 kts | 171° |
| 2026-04-21 22:33 | 44.40107 | -113.17700 | 34774 ft | 432 kts | 171° |
| 2026-04-21 22:33 | 44.34267 | -113.15689 | 34778 ft | 432 kts | 171° |
| 2026-04-21 22:34 | 44.28419 | -113.13680 | 34785 ft | 433 kts | 171° |
| 2026-04-21 22:34 | 44.22566 | -113.11670 | 34783 ft | 434 kts | 171° |
| 2026-04-21 22:35 | 44.16745 | -113.09680 | 34776 ft | 434 kts | 171° |
| 2026-04-21 22:35 | 44.10840 | -113.07664 | 34791 ft | 434 kts | 171° |
| 2026-04-21 22:36 | 44.02066 | -113.04674 | 34792 ft | 434 kts | 171° |
| 2026-04-21 22:36 | 43.96188 | -113.02678 | 34775 ft | 435 kts | 171° |
| 2026-04-21 22:37 | 43.90308 | -113.00683 | 34773 ft | 435 kts | 171° |
| 2026-04-21 22:37 | 43.84427 | -112.98694 | 34765 ft | 435 kts | 171° |
| 2026-04-21 22:38 | 43.78530 | -112.96702 | 34763 ft | 435 kts | 171° |
| 2026-04-21 22:38 | 43.72674 | -112.94730 | 34755 ft | 436 kts | 171° |
| 2026-04-21 22:39 | 43.66778 | -112.92741 | 34752 ft | 436 kts | 171° |
| 2026-04-21 22:39 | 43.60878 | -112.90761 | 34750 ft | 437 kts | 171° |
| 2026-04-21 22:40 | 43.54954 | -112.88775 | 34756 ft | 437 kts | 171° |
| 2026-04-21 22:40 | 43.49073 | -112.86811 | 34756 ft | 438 kts | 171° |
| 2026-04-21 22:41 | 43.43143 | -112.84837 | 34750 ft | 438 kts | 171° |
| 2026-04-21 22:41 | 43.37210 | -112.82858 | 34754 ft | 439 kts | 171° |
| 2026-04-21 22:42 | 43.31272 | -112.80885 | 34755 ft | 439 kts | 171° |
| 2026-04-21 22:42 | 43.25323 | -112.78905 | 34756 ft | 440 kts | 171° |
| 2026-04-21 22:43 | 43.19369 | -112.76937 | 34775 ft | 440 kts | 171° |
| 2026-04-21 22:43 | 43.13445 | -112.74980 | 34803 ft | 442 kts | 171° |
| 2026-04-21 22:44 | 43.07469 | -112.73013 | 34824 ft | 442 kts | 171° |
| 2026-04-21 22:44 | 43.01481 | -112.71048 | 34844 ft | 443 kts | 171° |
| 2026-04-21 22:45 | 42.95492 | -112.69084 | 34858 ft | 442 kts | 171° |
| 2026-04-21 22:45 | 42.89488 | -112.67119 | 34863 ft | 444 kts | 171° |
| 2026-04-21 22:46 | 42.83470 | -112.65165 | 34862 ft | 444 kts | 171° |
| 2026-04-21 22:46 | 42.77449 | -112.63256 | 34848 ft | 445 kts | 171° |
| 2026-04-21 22:47 | 42.71457 | -112.61351 | 34835 ft | 445 kts | 171° |
| 2026-04-21 22:47 | 42.65420 | -112.59434 | 34819 ft | 446 kts | 171° |
| 2026-04-21 22:48 | 42.59368 | -112.57514 | 34806 ft | 446 kts | 171° |
| 2026-04-21 22:48 | 42.53344 | -112.55604 | 34761 ft | 434 kts | 171° |
| 2026-04-21 22:49 | 42.50455 | -112.54687 | 34718 ft | 418 kts | 171° |
| 2026-04-21 22:49 | 42.47666 | -112.53803 | 34754 ft | 406 kts | 171° |
| 2026-04-21 22:49 | 42.42206 | -112.52085 | 34803 ft | 405 kts | 171° |
| 2026-04-21 22:50 | 42.36595 | -112.50326 | 34178 ft | 432 kts | 171° |
| 2026-04-21 22:50 | 42.33612 | -112.49394 | 32934 ft | 448 kts | 171° |
| 2026-04-21 22:50 | 42.30537 | -112.48428 | 31651 ft | 456 kts | 171° |
| 2026-04-21 22:51 | 42.27435 | -112.47454 | 30396 ft | 459 kts | 171° |
| 2026-04-21 22:51 | 42.24319 | -112.46477 | 29001 ft | 457 kts | 170° |
| 2026-04-21 22:51 | 42.21272 | -112.45518 | 28353 ft | 439 kts | 171° |
| 2026-04-21 22:51 | 42.18314 | -112.45138 | 27700 ft | 420 kts | 184° |
| 2026-04-21 22:52 | 42.15437 | -112.45301 | 27173 ft | 411 kts | 186° |
| 2026-04-21 22:52 | 42.12593 | -112.45494 | 26650 ft | 408 kts | 186° |
| 2026-04-21 22:52 | 42.09757 | -112.45674 | 26079 ft | 407 kts | 186° |
| 2026-04-21 22:52 | 42.06935 | -112.45847 | 25547 ft | 405 kts | 185° |
| 2026-04-21 22:53 | 42.04131 | -112.46013 | 25015 ft | 402 kts | 185° |
| 2026-04-21 22:53 | 42.01354 | -112.46175 | 24476 ft | 398 kts | 185° |
| 2026-04-21 22:53 | 41.98632 | -112.46332 | 23961 ft | 395 kts | 185° |
| 2026-04-21 22:53 | 41.95895 | -112.46486 | 23438 ft | 392 kts | 185° |
| 2026-04-21 22:54 | 41.93186 | -112.46640 | 22887 ft | 388 kts | 185° |
| 2026-04-21 22:54 | 41.90503 | -112.46788 | 22393 ft | 384 kts | 185° |
| 2026-04-21 22:54 | 41.87838 | -112.46937 | 21883 ft | 382 kts | 185° |
| 2026-04-21 22:54 | 41.85194 | -112.47082 | 21378 ft | 379 kts | 185° |
| 2026-04-21 22:55 | 41.82567 | -112.47226 | 20875 ft | 376 kts | 185° |
| 2026-04-21 22:55 | 41.79960 | -112.47367 | 20382 ft | 373 kts | 185° |
| 2026-04-21 22:55 | 41.77373 | -112.47509 | 19869 ft | 371 kts | 185° |
| 2026-04-21 22:55 | 41.74806 | -112.47649 | 19360 ft | 368 kts | 185° |
| 2026-04-21 22:56 | 41.72257 | -112.47791 | 18833 ft | 364 kts | 185° |
| 2026-04-21 22:56 | 41.70588 | -112.47882 | 18539 ft | 362 kts | 185° |
| 2026-04-21 22:56 | 41.68080 | -112.48021 | 18067 ft | 359 kts | 185° |
| 2026-04-21 22:56 | 41.65597 | -112.48157 | 17751 ft | 354 kts | 185° |
| 2026-04-21 22:57 | 41.63129 | -112.48296 | 17233 ft | 355 kts | 185° |
| 2026-04-21 22:57 | 41.60670 | -112.48431 | 16795 ft | 353 kts | 185° |
| 2026-04-21 22:57 | 41.58226 | -112.48565 | 16323 ft | 350 kts | 185° |
| 2026-04-21 22:57 | 41.55806 | -112.48687 | 16074 ft | 345 kts | 182° |
| 2026-04-21 22:58 | 41.53423 | -112.48195 | 15964 ft | 351 kts | 164° |
| 2026-04-21 22:58 | 41.51260 | -112.46619 | 15952 ft | 361 kts | 146° |
| 2026-04-21 22:58 | 41.49327 | -112.44459 | 15871 ft | 362 kts | 142° |
| 2026-04-21 22:58 | 41.47430 | -112.42237 | 15888 ft | 364 kts | 143° |
| 2026-04-21 22:59 | 41.45519 | -112.40017 | 15858 ft | 365 kts | 143° |
| 2026-04-21 22:59 | 41.43635 | -112.37807 | 15607 ft | 364 kts | 141° |
| 2026-04-21 22:59 | 41.41871 | -112.35386 | 15368 ft | 364 kts | 136° |
| 2026-04-21 22:59 | 41.40160 | -112.32889 | 14933 ft | 363 kts | 136° |
| 2026-04-21 23:00 | 41.38457 | -112.30429 | 14529 ft | 359 kts | 137° |
| 2026-04-21 23:00 | 41.36775 | -112.28022 | 14141 ft | 348 kts | 137° |
| 2026-04-21 23:00 | 41.35149 | -112.25704 | 13763 ft | 336 kts | 137° |
| 2026-04-21 23:00 | 41.33576 | -112.23470 | 13411 ft | 325 kts | 137° |
| 2026-04-21 23:01 | 41.32061 | -112.21321 | 13131 ft | 312 kts | 137° |
| 2026-04-21 23:01 | 41.30590 | -112.19244 | 12790 ft | 304 kts | 137° |
| 2026-04-21 23:01 | 41.29159 | -112.17222 | 12484 ft | 297 kts | 137° |
| 2026-04-21 23:01 | 41.27751 | -112.15239 | 12189 ft | 294 kts | 138° |
| 2026-04-21 23:02 | 41.26349 | -112.13268 | 11874 ft | 293 kts | 137° |
| 2026-04-21 23:02 | 41.24970 | -112.11325 | 11582 ft | 291 kts | 137° |
| 2026-04-21 23:02 | 41.23587 | -112.09378 | 11261 ft | 288 kts | 137° |
| 2026-04-21 23:02 | 41.22218 | -112.07499 | 11102 ft | 277 kts | 143° |
| 2026-04-21 23:03 | 41.20642 | -112.06120 | 11007 ft | 270 kts | 154° |
| 2026-04-21 23:03 | 41.18988 | -112.04925 | 10904 ft | 269 kts | 155° |
| 2026-04-21 23:03 | 41.17356 | -112.03771 | 10856 ft | 262 kts | 155° |
| 2026-04-21 23:03 | 41.15790 | -112.02536 | 10743 ft | 267 kts | 147° |
| 2026-04-21 23:04 | 41.14198 | -112.01289 | 10292 ft | 266 kts | 168° |
| 2026-04-21 23:04 | 41.12395 | -112.01198 | 9679 ft | 252 kts | 187° |
| 2026-04-21 23:04 | 41.10721 | -112.01276 | 9512 ft | 235 kts | 178° |
| 2026-04-21 23:04 | 41.09118 | -112.00997 | 9315 ft | 232 kts | 175° |
| 2026-04-21 23:05 | 41.07513 | -112.00794 | 9089 ft | 232 kts | 179° |
| 2026-04-21 23:05 | 41.05905 | -112.00661 | 8830 ft | 232 kts | 178° |
| 2026-04-21 23:05 | 41.04322 | -112.00456 | 8555 ft | 231 kts | 176° |
| 2026-04-21 23:05 | 41.02723 | -112.00256 | 8265 ft | 231 kts | 178° |
| 2026-04-21 23:06 | 41.01121 | -112.00071 | 7962 ft | 231 kts | 177° |
| 2026-04-21 23:06 | 40.99523 | -111.99884 | 7660 ft | 230 kts | 177° |
| 2026-04-21 23:06 | 40.97931 | -111.99699 | 7360 ft | 230 kts | 178° |
| 2026-04-21 23:06 | 40.96341 | -111.99512 | 7068 ft | 229 kts | 178° |
| 2026-04-21 23:07 | 40.94760 | -111.99327 | 6756 ft | 227 kts | 177° |
| 2026-04-21 23:07 | 40.93184 | -111.99146 | 6484 ft | 227 kts | 177° |
| 2026-04-21 23:07 | 40.91627 | -111.98962 | 6225 ft | 223 kts | 177° |
| 2026-04-21 23:07 | 40.90079 | -111.98780 | 5937 ft | 223 kts | 177° |
| 2026-04-21 23:08 | 40.88538 | -111.98602 | 5734 ft | 223 kts | 176° |
| 2026-04-21 23:08 | 40.87024 | -111.98427 | 5542 ft | 207 kts | 176° |
| 2026-04-21 23:08 | 40.85682 | -111.98286 | 5338 ft | 182 kts | 176° |
| 2026-04-21 23:08 | 40.84503 | -111.98135 | 5067 ft | 159 kts | 175° |
| 2026-04-21 23:09 | 40.83459 | -111.98008 | 4805 ft | 144 kts | 178° |
| 2026-04-21 23:09 | 40.82477 | -111.97899 | 4602 ft | 141 kts | 179° |
| 2026-04-21 23:09 | 40.81499 | -111.97780 | 4410 ft | 141 kts | 178° |
| 2026-04-21 23:09 | 40.80538 | -111.97670 | 4267 ft | 139 kts | 178° |
| 2026-04-21 23:10 | 40.79622 | -111.97568 | 4227 ft | 120 kts | 178° |
| 2026-04-21 23:10 | 40.78950 | -111.97489 | 4229 ft | 76 kts | 175° |
| 2026-04-21 23:10 | 40.78616 | -111.97488 | 4228 ft | 35 kts | 196° |
| 2026-04-21 23:10 | 40.78470 | -111.97597 | 4228 ft | 15 kts | 255° |
| 2026-04-21 23:11 | 40.78504 | -111.97660 | 4229 ft | 9 kts | 1° |
| 2026-04-21 23:11 | 40.78605 | -111.97665 | 4229 ft | 20 kts | 355° |
| 2026-04-21 23:11 | 40.78757 | -111.97684 | 4229 ft | 18 kts | 355° |
| 2026-04-21 23:11 | 40.78833 | -111.97746 | 4229 ft | 14 kts | 277° |
| 2026-04-21 23:12 | 40.78821 | -111.97885 | 4229 ft | 17 kts | 259° |
| 2026-04-21 23:12 | 40.78808 | -111.98048 | 4229 ft | 19 kts | 265° |
| 2026-04-21 23:12 | 40.78795 | -111.98231 | 4229 ft | 21 kts | 265° |
| 2026-04-21 23:12 | 40.78781 | -111.98430 | 4229 ft | 22 kts | 264° |
| 2026-04-21 23:13 | 40.78766 | -111.98635 | 4229 ft | 23 kts | 264° |
| 2026-04-21 23:13 | 40.78756 | -111.98778 | 4229 ft | 11 kts | 264° |
| 2026-04-21 23:13 | 40.78763 | -111.98820 | 4229 ft | 2 kts | 330° |
| 2026-04-21 23:13 | 40.78789 | -111.98828 | 4229 ft | 5 kts | 353° |
| 2026-04-21 23:14 | 40.78814 | -111.98831 | 4229 ft | 2 kts | 355° |
| 2026-04-21 23:14 | 40.78822 | -111.98832 | 4229 ft | 0 kts | 355° |